createdAt,value
2023-02-16T00:01:37.816Z,7.23
2023-02-16T00:04:19.844Z,6.93
2023-02-16T00:06:48.608Z,6.63
2023-02-16T00:09:16.847Z,8.37
2023-02-16T00:12:03.099Z,7.00
2023-02-16T00:14:30.882Z,6.67
2023-02-16T00:17:00.717Z,6.50
2023-02-16T00:19:30.554Z,6.57
2023-02-16T00:22:00.323Z,7.00
2023-02-16T00:24:29.948Z,6.73
2023-02-16T00:26:58.691Z,6.57
2023-02-16T00:29:29.165Z,7.17
2023-02-16T00:32:00.551Z,7.00
2023-02-16T00:34:31.856Z,7.20
2023-02-16T00:37:01.337Z,6.43
2023-02-16T00:39:29.642Z,6.97
2023-02-16T00:42:01.074Z,5.77
2023-02-16T00:44:34.231Z,6.07
2023-02-16T00:47:11.948Z,6.53
2023-02-16T00:49:39.728Z,6.17
2023-02-16T00:52:27.685Z,6.07
2023-02-16T00:54:55.482Z,6.00
2023-02-16T00:57:24.351Z,6.20
2023-02-16T00:59:59.278Z,5.83
2023-02-16T01:02:28.753Z,6.20
2023-02-16T01:04:56.639Z,6.17
2023-02-16T01:07:42.110Z,6.00
2023-02-16T01:10:28.981Z,5.67
2023-02-16T01:12:56.884Z,6.07
2023-02-16T01:15:27.315Z,6.40
2023-02-16T01:17:56.702Z,6.67
2023-02-16T01:20:26.264Z,6.00
2023-02-16T01:22:54.403Z,7.50
2023-02-16T01:25:22.344Z,6.73
2023-02-16T01:27:51.148Z,5.97
2023-02-16T01:30:21.181Z,5.37
2023-02-16T01:32:51.612Z,5.73
2023-02-16T01:35:21.465Z,5.50
2023-02-16T01:37:49.359Z,6.80
2023-02-16T01:40:31.587Z,6.70
2023-02-16T01:43:05.150Z,6.93
2023-02-16T01:45:36.449Z,6.43
2023-02-16T01:48:06.967Z,6.57
2023-02-16T01:50:45.304Z,6.40
2023-02-16T01:53:22.121Z,6.73
2023-02-16T01:55:57.022Z,6.83
2023-02-16T01:58:36.455Z,5.80
2023-02-16T02:01:38.402Z,6.00
2023-02-16T02:04:32.666Z,6.20
2023-02-16T02:07:01.769Z,5.93
2023-02-16T02:09:39.015Z,5.30
2023-02-16T02:12:15.012Z,5.90
2023-02-16T02:14:43.589Z,5.63
2023-02-16T02:17:17.389Z,5.67
2023-02-16T02:19:51.946Z,5.70
2023-02-16T02:23:06.669Z,5.83
2023-02-16T02:25:54.761Z,5.27
2023-02-16T02:28:33.305Z,5.37
2023-02-16T02:31:08.557Z,5.77
2023-02-16T02:33:49.383Z,5.60
2023-02-16T02:36:28.112Z,5.27
2023-02-16T02:39:10.275Z,6.10
2023-02-16T02:42:02.222Z,6.43
2023-02-16T02:44:34.945Z,18.13
2023-02-16T02:47:02.882Z,9.10
2023-02-16T02:49:30.635Z,6.87
2023-02-16T02:51:59.378Z,5.80
2023-02-16T02:54:48.741Z,5.47
2023-02-16T02:57:37.606Z,5.90
2023-02-16T03:00:26.884Z,5.03
2023-02-16T03:02:58.418Z,8.30
2023-02-16T03:05:30.397Z,9.20
2023-02-16T03:08:13.933Z,8.07
2023-02-16T03:11:02.142Z,5.70
2023-02-16T03:13:34.720Z,6.23
2023-02-16T03:16:08.520Z,5.97
2023-02-16T03:18:55.759Z,41.10
2023-02-16T03:21:41.775Z,42.73
2023-02-16T03:24:31.843Z,28.10
2023-02-16T03:27:17.725Z,18.40
2023-02-16T03:29:46.712Z,10.50
2023-02-16T03:32:16.489Z,8.53
2023-02-16T03:34:44.685Z,8.47
2023-02-16T03:37:13.395Z,8.03
2023-02-16T03:39:55.209Z,13.13
2023-02-16T03:42:24.208Z,15.07
2023-02-16T03:44:52.571Z,58.93
2023-02-16T03:47:21.811Z,68.13
2023-02-16T03:49:50.036Z,53.33
2023-02-16T03:52:17.826Z,26.87
2023-02-16T03:54:45.714Z,13.67
2023-02-16T03:57:13.535Z,6.47
2023-02-16T03:59:41.268Z,8.63
2023-02-16T04:02:09.041Z,21.83
2023-02-16T04:04:38.395Z,48.87
2023-02-16T04:07:06.166Z,41.70
2023-02-16T04:09:33.941Z,24.27
2023-02-16T04:12:19.381Z,9.87
2023-02-16T04:14:47.172Z,17.83
2023-02-16T04:17:14.951Z,15.53
2023-02-16T04:19:44.147Z,8.83
2023-02-16T04:22:11.945Z,10.70
2023-02-16T04:24:39.788Z,10.87
2023-02-16T04:27:07.671Z,10.47
2023-02-16T04:29:35.451Z,7.60
2023-02-16T04:32:03.355Z,5.63
2023-02-16T04:34:31.212Z,5.17
2023-02-16T04:37:01.078Z,5.70
2023-02-16T04:39:28.956Z,4.27
2023-02-16T04:41:56.719Z,54.73
2023-02-16T04:44:24.541Z,18.50
2023-02-16T04:46:52.281Z,15.70
2023-02-16T04:49:20.092Z,6.83
2023-02-16T04:51:47.931Z,11.70
2023-02-16T04:54:17.251Z,9.03
2023-02-16T04:56:45.676Z,6.90
2023-02-16T04:59:14.284Z,6.07
2023-02-16T05:01:42.535Z,9.10
2023-02-16T05:04:10.669Z,8.03
2023-02-16T05:06:38.993Z,6.73
2023-02-16T05:09:07.712Z,5.10
2023-02-16T05:11:54.586Z,6.10
2023-02-16T05:14:42.735Z,6.90
2023-02-16T05:17:11.634Z,7.43
2023-02-16T05:19:39.648Z,9.23
2023-02-16T05:22:07.786Z,15.67
2023-02-16T05:24:35.928Z,10.57
2023-02-16T05:27:07.046Z,7.97
2023-02-16T05:29:35.112Z,8.13
2023-02-16T05:32:04.701Z,7.70
2023-02-16T05:34:33.152Z,7.10
2023-02-16T05:37:00.951Z,7.80
2023-02-16T05:39:28.862Z,8.20
2023-02-16T05:41:56.619Z,8.37
2023-02-16T05:44:25.953Z,10.67
2023-02-16T05:46:53.733Z,12.27
2023-02-16T05:49:21.497Z,10.87
2023-02-16T05:51:49.553Z,10.50
2023-02-16T05:54:18.066Z,10.73
2023-02-16T05:56:46.926Z,12.07
2023-02-16T05:59:15.982Z,11.63
2023-02-16T06:01:50.451Z,11.93
2023-02-16T06:04:19.462Z,7.97
2023-02-16T06:06:47.255Z,6.23
2023-02-16T06:09:15.211Z,5.83
2023-02-16T06:11:43.563Z,6.17
2023-02-16T06:14:14.028Z,5.63
2023-02-16T06:16:44.267Z,5.33
2023-02-16T06:19:14.287Z,5.67
2023-02-16T06:21:42.804Z,6.17
2023-02-16T06:24:12.474Z,4.87
2023-02-16T06:26:40.620Z,4.50
2023-02-16T06:29:08.925Z,4.33
2023-02-16T06:31:37.215Z,4.50
2023-02-16T06:34:06.069Z,4.87
2023-02-16T06:36:35.930Z,5.47
2023-02-16T06:39:03.946Z,5.03
2023-02-16T06:41:37.762Z,4.40
2023-02-16T06:44:07.817Z,4.33
2023-02-16T06:46:36.239Z,4.83
2023-02-16T06:49:04.276Z,4.13
2023-02-16T06:51:32.136Z,3.73
2023-02-16T06:54:01.293Z,4.50
2023-02-16T06:56:29.136Z,4.23
2023-02-16T06:58:57.069Z,4.37
2023-02-16T07:01:26.072Z,4.23
2023-02-16T07:03:55.513Z,4.20
2023-02-16T07:06:25.039Z,7.37
2023-02-16T07:08:53.296Z,7.50
2023-02-16T07:11:22.800Z,6.73
2023-02-16T07:13:50.843Z,7.97
2023-02-16T07:16:18.669Z,5.80
2023-02-16T07:18:47.346Z,7.10
2023-02-16T07:21:16.102Z,6.83
2023-02-16T07:23:44.221Z,9.33
2023-02-16T07:26:12.668Z,15.37
2023-02-16T07:28:41.844Z,8.33
2023-02-16T07:31:11.350Z,6.37
2023-02-16T07:33:39.794Z,5.30
2023-02-16T07:36:08.437Z,5.67
2023-02-16T07:38:36.492Z,12.27
2023-02-16T07:41:07.775Z,9.67
2023-02-16T07:43:37.381Z,6.43
2023-02-16T07:46:06.827Z,8.17
2023-02-16T07:48:34.726Z,8.87
2023-02-16T07:51:03.090Z,8.93
2023-02-16T07:53:31.135Z,8.73
2023-02-16T07:55:59.057Z,7.50
2023-02-16T08:01:27.840Z,5.63
2023-02-16T08:03:55.693Z,5.67
2023-02-16T08:06:23.652Z,5.40
2023-02-16T08:08:51.489Z,10.80
2023-02-16T08:11:20.990Z,16.87
2023-02-16T08:13:49.140Z,12.17
2023-02-16T08:16:19.235Z,11.50
2023-02-16T08:18:48.640Z,11.13
2023-02-16T08:21:18.775Z,20.80
2023-02-16T08:23:48.945Z,16.67
2023-02-16T08:26:18.532Z,11.63
2023-02-16T08:28:47.778Z,7.13
2023-02-16T08:31:16.822Z,5.13
2023-02-16T08:33:45.024Z,5.47
2023-02-16T08:36:19.684Z,5.40
2023-02-16T08:38:50.363Z,5.27
2023-02-16T08:41:18.862Z,6.50
2023-02-16T08:43:46.992Z,7.80
2023-02-16T08:46:15.246Z,8.77
2023-02-16T08:48:45.190Z,4.60
2023-02-16T08:51:15.397Z,3.97
2023-02-16T08:53:44.614Z,3.67
2023-02-16T08:56:12.731Z,3.10
2023-02-16T08:58:40.859Z,3.50
2023-02-16T09:01:09.746Z,3.53
2023-02-16T09:03:38.389Z,3.30
2023-02-16T09:06:07.285Z,3.10
2023-02-16T09:08:37.413Z,2.70
2023-02-16T09:11:10.072Z,2.60
2023-02-16T09:13:39.636Z,3.00
2023-02-16T09:16:09.513Z,3.70
2023-02-16T09:18:37.700Z,2.97
2023-02-16T09:21:07.552Z,3.53
2023-02-16T09:23:35.845Z,2.93
2023-02-16T09:26:06.942Z,3.50
2023-02-16T09:28:37.446Z,3.37
2023-02-16T09:31:11.484Z,2.73
2023-02-16T09:33:40.081Z,2.90
2023-02-16T09:36:09.521Z,3.00
2023-02-16T09:38:39.484Z,3.13
2023-02-16T09:41:10.027Z,3.03
2023-02-16T09:43:48.653Z,3.33
2023-02-16T09:46:22.878Z,3.00
2023-02-16T09:48:53.131Z,2.90
2023-02-16T09:51:33.738Z,2.90
2023-02-16T09:54:11.839Z,3.40
2023-02-16T09:56:42.856Z,3.43
2023-02-16T09:59:20.101Z,3.10
2023-02-16T10:01:56.890Z,2.90
2023-02-16T10:04:39.005Z,3.17
2023-02-16T10:07:17.331Z,2.70
2023-02-16T10:09:51.043Z,3.13
2023-02-16T10:12:25.701Z,3.23
2023-02-16T10:14:58.995Z,3.37
2023-02-16T10:17:33.092Z,3.30
2023-02-16T10:20:04.904Z,2.87
2023-02-16T10:22:36.778Z,3.73
2023-02-16T10:25:10.497Z,3.23
2023-02-16T10:27:41.892Z,3.10
2023-02-16T10:30:16.818Z,3.47
2023-02-16T10:32:55.931Z,3.43
2023-02-16T10:35:31.431Z,3.20
2023-02-16T10:38:04.828Z,3.40
2023-02-16T10:40:42.767Z,2.80
2023-02-16T10:43:19.120Z,3.40
2023-02-16T10:45:52.747Z,2.90
2023-02-16T10:48:21.563Z,3.03
2023-02-16T10:50:58.402Z,2.80
2023-02-16T10:53:37.563Z,3.20
2023-02-16T10:56:28.178Z,2.80
2023-02-16T10:58:58.347Z,3.10
2023-02-16T11:01:39.495Z,3.00
2023-02-16T11:04:07.809Z,3.13
2023-02-16T11:06:36.676Z,2.83
2023-02-16T11:09:06.584Z,3.43
2023-02-16T11:11:38.615Z,3.23
2023-02-16T11:14:09.385Z,3.30
2023-02-16T11:16:38.898Z,3.10
2023-02-16T11:19:09.676Z,3.07
2023-02-16T11:21:46.063Z,2.70
2023-02-16T11:24:25.269Z,2.70
2023-02-16T11:27:02.290Z,2.53
2023-02-16T11:29:31.448Z,2.73
2023-02-16T11:32:06.263Z,3.03
2023-02-16T11:34:36.716Z,3.00
2023-02-16T11:37:09.081Z,2.80
2023-02-16T11:39:39.655Z,3.57
2023-02-16T11:42:10.350Z,3.07
2023-02-16T11:44:40.116Z,2.60
2023-02-16T11:47:25.164Z,3.30
2023-02-16T11:50:10.802Z,3.27
2023-02-16T11:52:38.612Z,86.30
2023-02-16T11:55:21.195Z,44.10
2023-02-16T11:57:49.140Z,8.83
2023-02-16T12:00:21.834Z,41.37
2023-02-16T12:03:13.573Z,37.57
2023-02-16T12:05:54.546Z,8.50
2023-02-16T12:08:35.408Z,3.60
2023-02-16T12:11:16.568Z,2.90
2023-02-16T12:13:53.728Z,3.20
2023-02-16T12:16:31.119Z,3.27
2023-02-16T12:19:12.175Z,3.57
2023-02-16T12:21:45.707Z,3.97
2023-02-16T12:24:28.332Z,3.70
2023-02-16T12:26:59.336Z,3.43
2023-02-16T12:29:41.375Z,3.57
2023-02-16T12:32:25.687Z,3.60
2023-02-16T12:35:13.198Z,2.93
2023-02-16T12:37:47.939Z,2.80
2023-02-16T12:40:25.146Z,3.37
2023-02-16T12:43:08.299Z,2.73
2023-02-16T12:45:38.685Z,3.20
2023-02-16T12:48:20.415Z,7.40
2023-02-16T12:50:51.152Z,3.70
2023-02-16T12:53:26.921Z,3.50
2023-02-16T12:55:59.624Z,3.03
2023-02-16T12:58:31.504Z,3.17
2023-02-16T13:01:04.038Z,3.60
2023-02-16T13:03:38.993Z,3.40
2023-02-16T13:06:19.357Z,3.80
2023-02-16T13:08:52.669Z,3.63
2023-02-16T13:11:24.401Z,3.60
2023-02-16T13:13:57.538Z,3.43
2023-02-16T13:16:31.795Z,3.43
2023-02-16T13:18:59.786Z,2.77
2023-02-16T13:21:53.933Z,4.03
2023-02-16T13:24:34.008Z,3.07
2023-02-16T13:27:14.962Z,3.53
2023-02-16T13:30:01.328Z,3.47
2023-02-16T13:32:52.200Z,3.07
2023-02-16T13:35:34.436Z,3.10
2023-02-16T13:38:18.844Z,3.50
2023-02-16T13:41:23.019Z,4.03
2023-02-16T13:43:56.029Z,3.63
2023-02-16T13:46:30.687Z,3.60
2023-02-16T13:48:59.082Z,3.67
2023-02-16T13:51:30.953Z,4.00
2023-02-16T13:54:02.881Z,3.43
2023-02-16T13:56:36.629Z,3.47
2023-02-16T13:59:59.241Z,3.00
2023-02-16T14:02:54.282Z,2.70
2023-02-16T14:05:34.908Z,2.50
2023-02-16T14:08:16.067Z,2.50
2023-02-16T14:11:18.996Z,2.77
2023-02-16T14:13:49.274Z,2.60
2023-02-16T14:16:32.583Z,2.30
2023-02-16T14:19:03.539Z,2.20
2023-02-16T14:21:39.284Z,2.17
2023-02-16T14:24:12.214Z,2.10
2023-02-16T14:26:55.487Z,2.07
2023-02-16T14:29:27.840Z,2.40
2023-02-16T14:32:00.248Z,2.50
2023-02-16T14:34:31.496Z,2.60
2023-02-16T14:37:38.870Z,2.40
2023-02-16T14:40:16.254Z,2.40
2023-02-16T14:42:57.664Z,2.30
2023-02-16T14:45:58.383Z,2.03
2023-02-16T14:48:50.282Z,2.83
2023-02-16T14:51:40.482Z,2.87
2023-02-16T14:54:38.270Z,2.53
2023-02-16T14:57:11.941Z,2.97
2023-02-16T14:59:48.991Z,3.00
2023-02-16T15:02:28.792Z,2.50
2023-02-16T15:04:58.117Z,2.53
2023-02-16T15:07:27.915Z,2.23
2023-02-16T15:10:04.947Z,2.47
2023-02-16T15:12:33.379Z,2.30
2023-02-16T15:15:05.203Z,2.43
2023-02-16T15:17:36.892Z,1.97
2023-02-16T15:20:11.209Z,2.20
2023-02-16T15:22:44.292Z,2.43
2023-02-16T15:25:25.000Z,2.17
2023-02-16T15:28:00.302Z,2.40
2023-02-16T15:30:31.364Z,2.40
2023-02-16T15:33:02.174Z,2.70
2023-02-16T15:35:35.904Z,2.47
2023-02-16T15:38:10.263Z,2.60
2023-02-16T15:40:38.536Z,2.60
2023-02-16T15:43:19.172Z,2.43
2023-02-16T15:45:52.582Z,3.03
2023-02-16T15:48:30.357Z,3.20
2023-02-16T15:51:06.860Z,4.43
2023-02-16T15:53:44.616Z,3.63
2023-02-16T15:56:42.688Z,3.70
2023-02-16T15:59:35.733Z,11.27
2023-02-16T16:02:13.560Z,9.83
2023-02-16T16:04:44.421Z,15.57
2023-02-16T16:07:15.233Z,7.80
2023-02-16T16:09:45.300Z,3.70
2023-02-16T16:12:15.324Z,2.87
2023-02-16T16:14:50.696Z,3.10
2023-02-16T16:17:24.171Z,3.60
2023-02-16T16:19:52.069Z,5.20
2023-02-16T16:22:34.250Z,4.70
2023-02-16T16:25:03.001Z,3.50
2023-02-16T16:27:32.948Z,3.77
2023-02-16T16:30:14.016Z,2.93
2023-02-16T16:32:43.292Z,3.13
2023-02-16T16:35:22.764Z,3.00
2023-02-16T16:37:53.494Z,3.70
2023-02-16T16:40:24.977Z,2.73
2023-02-16T16:43:09.910Z,3.73
2023-02-16T16:45:40.343Z,4.90
2023-02-16T16:48:19.253Z,9.83
2023-02-16T16:50:49.063Z,10.70
2023-02-16T16:53:50.543Z,7.23
2023-02-16T16:56:18.813Z,5.20
2023-02-16T16:58:50.289Z,4.90
2023-02-16T17:01:19.021Z,3.30
2023-02-16T17:03:48.516Z,4.00
2023-02-16T17:06:17.563Z,11.07
2023-02-16T17:08:46.480Z,6.93
2023-02-16T17:11:20.631Z,5.70
2023-02-16T17:13:48.440Z,5.03
2023-02-16T17:16:21.042Z,6.20
2023-02-16T17:18:50.209Z,5.37
2023-02-16T17:21:18.230Z,5.03
2023-02-16T17:23:52.835Z,7.67
2023-02-16T17:26:21.490Z,7.73
2023-02-16T17:28:49.333Z,6.97
2023-02-16T17:31:17.313Z,6.73
2023-02-16T17:33:45.429Z,4.47
2023-02-16T17:36:16.626Z,4.20
2023-02-16T17:38:44.946Z,4.73
2023-02-16T17:41:19.976Z,5.17
2023-02-16T17:43:47.830Z,5.27
2023-02-16T17:46:16.442Z,5.43
2023-02-16T17:48:47.048Z,4.20
2023-02-16T17:51:17.642Z,3.57
2023-02-16T17:53:45.979Z,3.57
2023-02-16T17:56:15.463Z,3.40
2023-02-16T17:58:43.651Z,3.93
2023-02-16T18:01:14.467Z,2.90
2023-02-16T18:03:42.342Z,3.03
2023-02-16T18:06:14.563Z,3.40
2023-02-16T18:08:44.344Z,3.00
2023-02-16T18:11:12.766Z,2.67
2023-02-16T18:13:41.033Z,2.90
2023-02-16T18:16:11.730Z,2.67
2023-02-16T18:18:40.007Z,2.90
2023-02-16T18:21:08.390Z,2.80
2023-02-16T18:23:36.222Z,2.90
2023-02-16T18:26:06.962Z,2.93
2023-02-16T18:28:35.754Z,2.83
2023-02-16T18:31:06.982Z,2.67
2023-02-16T18:33:35.298Z,36.83
2023-02-16T18:36:03.853Z,56.17
2023-02-16T18:38:32.440Z,26.00
2023-02-16T18:41:00.238Z,9.33
2023-02-16T18:43:29.468Z,7.83
2023-02-16T18:45:57.290Z,5.33
2023-02-16T18:48:25.116Z,7.30
2023-02-16T18:50:52.859Z,6.13
2023-02-16T18:53:20.644Z,4.33
2023-02-16T18:55:48.412Z,4.10
2023-02-16T18:58:16.344Z,4.60
2023-02-16T19:00:45.512Z,4.23
2023-02-16T19:03:13.382Z,4.20
2023-02-16T19:05:41.357Z,4.30
2023-02-16T19:08:09.120Z,4.70
2023-02-16T19:10:36.919Z,3.90
2023-02-16T19:13:06.912Z,4.57
2023-02-16T19:15:34.755Z,5.30
2023-02-16T19:18:03.962Z,4.20
2023-02-16T19:20:31.777Z,4.10
2023-02-16T19:22:59.588Z,3.50
2023-02-16T19:25:28.774Z,4.07
2023-02-16T19:27:56.587Z,3.13
2023-02-16T19:30:24.478Z,3.83
2023-02-16T19:32:52.668Z,4.20
2023-02-16T19:35:21.923Z,4.13
2023-02-16T19:37:49.713Z,3.67
2023-02-16T19:40:18.669Z,3.90
2023-02-16T19:42:46.482Z,4.53
2023-02-16T19:45:14.318Z,3.90
2023-02-16T19:47:42.101Z,4.20
2023-02-16T19:50:10.467Z,4.23
2023-02-16T19:52:39.564Z,3.60
2023-02-16T19:55:08.432Z,2.80
2023-02-16T19:57:37.331Z,3.17
2023-02-16T20:00:05.992Z,3.47
2023-02-16T20:02:33.773Z,2.97
2023-02-16T20:05:01.558Z,3.80
2023-02-16T20:07:29.323Z,3.40
2023-02-16T20:09:58.460Z,3.40
2023-02-16T20:12:28.500Z,3.13
2023-02-16T20:14:56.540Z,3.27
2023-02-16T20:17:24.647Z,3.37
2023-02-16T20:19:52.572Z,2.73
2023-02-16T20:22:20.404Z,2.90
2023-02-16T20:24:48.180Z,3.00
2023-02-16T20:27:17.363Z,3.03
2023-02-16T20:29:45.131Z,2.73
2023-02-16T20:32:13.010Z,3.07
2023-02-16T20:34:41.002Z,3.00
2023-02-16T20:37:08.864Z,3.03
2023-02-16T20:39:36.703Z,3.00
2023-02-16T20:42:04.758Z,2.97
2023-02-16T20:44:33.874Z,2.63
2023-02-16T20:47:01.630Z,3.33
2023-02-16T20:49:29.529Z,3.40
2023-02-16T20:51:57.287Z,3.30
2023-02-16T20:54:25.072Z,3.00
2023-02-16T20:56:52.896Z,3.90
2023-02-16T20:59:20.876Z,2.83
2023-02-16T21:01:52.547Z,2.67
2023-02-16T21:04:21.083Z,3.30
2023-02-16T21:06:48.944Z,2.87
2023-02-16T21:09:17.262Z,3.07
2023-02-16T21:11:45.062Z,2.90
2023-02-16T21:14:13.859Z,3.07
2023-02-16T21:16:41.942Z,3.23
2023-02-16T21:19:21.208Z,3.10
2023-02-16T21:21:50.371Z,2.70
2023-02-16T21:24:18.164Z,3.17
2023-02-16T21:26:45.911Z,2.97
2023-02-16T21:29:13.888Z,2.90
2023-02-16T21:31:41.789Z,3.33
2023-02-16T21:34:10.958Z,2.90
2023-02-16T21:36:38.835Z,2.67
2023-02-16T21:39:06.750Z,2.90
2023-02-16T21:41:33.745Z,2.83
2023-02-16T21:44:03.110Z,2.90
2023-02-16T21:46:33.196Z,2.93
2023-02-16T21:49:00.205Z,2.73
2023-02-16T21:51:32.844Z,2.70
2023-02-16T21:54:00.978Z,3.30
2023-02-16T21:56:34.943Z,2.90
2023-02-16T21:59:03.469Z,3.07
2023-02-16T22:01:33.731Z,2.93
2023-02-16T22:04:02.078Z,3.20
2023-02-16T22:06:33.507Z,2.80
2023-02-16T22:09:02.431Z,2.67
2023-02-16T22:11:30.296Z,2.83
2023-02-16T22:13:59.943Z,3.20
2023-02-16T22:16:29.715Z,2.70
2023-02-16T22:18:58.355Z,2.80
2023-02-16T22:21:26.629Z,2.77
2023-02-16T22:23:56.066Z,2.60
2023-02-16T22:26:25.353Z,2.87
2023-02-16T22:28:53.431Z,3.07
2023-02-16T22:31:23.108Z,2.90
2023-02-16T22:33:56.526Z,4.20
2023-02-16T22:36:24.616Z,4.47
2023-02-16T22:38:53.158Z,3.13
2023-02-16T22:41:23.350Z,2.83
2023-02-16T22:43:53.886Z,2.53
2023-02-16T22:46:22.902Z,3.33
2023-02-16T22:48:50.912Z,2.97
2023-02-16T22:51:20.189Z,3.30
2023-02-16T22:53:48.950Z,3.00
2023-02-16T22:56:19.108Z,2.77
2023-02-16T22:58:48.491Z,2.70
2023-02-16T23:01:19.800Z,3.20
2023-02-16T23:03:48.534Z,2.70
2023-02-16T23:06:17.984Z,2.40
2023-02-16T23:08:46.693Z,2.50
2023-02-16T23:11:14.857Z,2.20
2023-02-16T23:13:42.619Z,2.50
2023-02-16T23:16:14.298Z,2.73
2023-02-16T23:18:43.489Z,2.90
2023-02-16T23:21:15.775Z,2.50
2023-02-16T23:23:44.273Z,2.40
2023-02-16T23:26:12.143Z,3.00
2023-02-16T23:28:41.829Z,2.63
2023-02-16T23:31:12.606Z,2.60
2023-02-16T23:33:40.837Z,2.57
2023-02-16T23:36:09.309Z,2.73
2023-02-16T23:38:37.462Z,2.63
2023-02-16T23:41:07.979Z,2.23
2023-02-16T23:43:36.307Z,2.13
2023-02-16T23:46:04.508Z,3.20
2023-02-16T23:48:34.045Z,2.30
2023-02-16T23:51:01.866Z,2.80
2023-02-16T23:53:29.903Z,2.93
2023-02-16T23:55:59.189Z,2.67
2023-02-16T23:58:28.387Z,2.90
